Time;durP1;ratioP1;P1;durP2;ratioP2;P2;SDS_P1;SDS_P2;PMS_P1;PMS_P2;Temp;Humidity;BMP_temperature;BMP_pressure;BME280_temperature;BME280_humidity;BME280_pressure;Samples;Min_cycle;Max_cycle;Signal;HPM_P1;HPM_P2
2020/12/06 00:00:09;;;;;;;8.50;6.22;;;4.30;78.30;;;;;;5134631;27;20541;-73
2020/12/06 00:02:35;;;;;;;9.90;7.00;;;4.30;79.00;;;;;;5134566;27;20024;-73
2020/12/06 00:05:03;;;;;;;10.57;6.50;;;4.30;78.50;;;;;;5135906;27;20030;-73
2020/12/06 00:07:28;;;;;;;8.32;5.95;;;4.30;78.60;;;;;;5134718;27;20043;-72
2020/12/06 00:09:54;;;;;;;7.63;5.70;;;4.30;78.60;;;;;;5134651;27;20459;-73
2020/12/06 00:12:20;;;;;;;9.45;5.88;;;4.30;78.60;;;;;;5135809;27;20019;-73
2020/12/06 00:14:45;;;;;;;7.47;5.80;;;4.30;78.60;;;;;;5134512;27;20051;-73
2020/12/06 00:17:11;;;;;;;7.47;5.90;;;4.40;78.70;;;;;;5134406;27;20019;-73
2020/12/06 00:19:37;;;;;;;8.88;5.78;;;4.40;78.60;;;;;;5134338;27;20019;-73
2020/12/06 00:22:02;;;;;;;7.93;5.97;;;4.40;78.60;;;;;;5135688;27;20097;-73
2020/12/06 00:24:28;;;;;;;9.25;6.20;;;4.40;78.60;;;;;;5134376;27;20489;-73
2020/12/06 00:26:57;;;;;;;7.47;5.68;;;4.40;78.60;;;;;;5153433;27;20041;-73
2020/12/06 00:29:23;;;;;;;8.30;5.90;;;4.30;78.60;;;;;;5137532;27;20018;-73
2020/12/06 00:31:49;;;;;;;8.27;5.82;;;4.30;78.60;;;;;;5137588;27;20023;-73
2020/12/06 00:34:14;;;;;;;8.27;5.80;;;4.30;78.70;;;;;;5137442;27;20546;-72
2020/12/06 00:36:40;;;;;;;9.18;5.93;;;4.30;78.70;;;;;;5137626;27;20591;-72
2020/12/06 00:39:05;;;;;;;7.93;5.63;;;4.30;78.80;;;;;;5156450;27;20022;-73
2020/12/06 00:41:31;;;;;;;7.80;5.90;;;4.30;78.80;;;;;;5137470;27;20466;-73
2020/12/06 00:43:57;;;;;;;8.82;5.40;;;4.30;78.80;;;;;;5156005;27;20034;-73
2020/12/06 00:46:23;;;;;;;8.75;6.05;;;4.20;78.80;;;;;;5138131;27;20037;-73
2020/12/06 00:48:49;;;;;;;9.32;6.18;;;4.20;78.80;;;;;;5137507;27;20019;-72
2020/12/06 00:51:16;;;;;;;9.40;5.97;;;4.20;78.80;;;;;;5137296;27;20011;-73
2020/12/06 00:53:42;;;;;;;8.63;6.20;;;4.20;78.90;;;;;;5137226;27;20018;-73
2020/12/06 00:56:16;;;;;;;7.80;5.60;;;4.20;78.90;;;;;;5137562;27;20450;-72
2020/12/06 00:58:41;;;;;;;8.38;5.78;;;4.20;79.00;;;;;;5155671;27;20529;-73
2020/12/06 01:01:07;;;;;;;9.18;5.80;;;4.20;79.00;;;;;;5136950;27;20050;-73
2020/12/06 01:03:33;;;;;;;7.13;5.63;;;4.20;79.00;;;;;;5137007;27;20531;-73
2020/12/06 01:05:58;;;;;;;9.60;6.13;;;4.20;79.10;;;;;;5136848;27;20015;-74
2020/12/06 01:08:24;;;;;;;9.27;6.60;;;4.20;79.00;;;;;;5136780;27;20067;-73
2020/12/06 01:10:49;;;;;;;10.05;6.40;;;4.20;79.00;;;;;;5136685;27;20481;-72
2020/12/06 01:13:15;;;;;;;9.82;6.97;;;4.10;79.00;;;;;;5136799;27;20022;-72
2020/12/06 01:15:41;;;;;;;8.73;5.60;;;4.10;79.00;;;;;;5136748;27;20026;-73
2020/12/06 01:18:06;;;;;;;9.00;6.13;;;4.10;79.00;;;;;;5136848;27;20050;-73
2020/12/06 01:20:32;;;;;;;9.27;6.20;;;4.10;79.10;;;;;;5155534;27;20031;-73
2020/12/06 01:22:58;;;;;;;8.57;5.95;;;4.10;79.10;;;;;;5136617;27;20138;-73
2020/12/06 01:25:23;;;;;;;9.07;6.10;;;4.10;79.10;;;;;;5154747;27;20398;-73
2020/12/06 01:27:49;;;;;;;9.18;6.45;;;4.10;79.10;;;;;;5136608;27;20377;-73
2020/12/06 01:30:15;;;;;;;7.85;5.85;;;4.10;79.10;;;;;;5136357;27;20110;-72
2020/12/06 01:32:40;;;;;;;9.35;6.50;;;4.20;79.20;;;;;;5136709;27;20470;-73
2020/12/06 01:35:06;;;;;;;9.55;6.03;;;4.10;79.10;;;;;;5136459;27;20023;-73
2020/12/06 01:37:32;;;;;;;8.77;6.35;;;4.20;79.10;;;;;;5133804;27;20059;-73
2020/12/06 01:39:57;;;;;;;9.15;6.45;;;4.20;79.20;;;;;;5155345;27;20081;-73
2020/12/06 01:42:23;;;;;;;8.05;6.03;;;4.20;79.20;;;;;;5136623;27;20015;-73
2020/12/06 01:44:56;;;;;;;10.10;6.47;;;4.10;79.20;;;;;;5136404;27;20022;-73
2020/12/06 01:47:22;;;;;;;8.80;6.30;;;4.10;79.20;;;;;;5135885;27;20050;-73
2020/12/06 01:49:48;;;;;;;8.52;6.10;;;4.20;79.20;;;;;;5136265;27;20050;-73
2020/12/06 01:52:14;;;;;;;10.18;6.65;;;4.20;79.20;;;;;;5154695;27;20049;-73
2020/12/06 01:54:40;;;;;;;9.30;6.57;;;4.20;79.20;;;;;;5136314;27;20415;-73
2020/12/06 01:57:06;;;;;;;10.43;7.15;;;4.20;79.20;;;;;;5135966;27;20443;-73
2020/12/06 01:59:31;;;;;;;10.82;6.90;;;4.20;79.20;;;;;;5136087;27;20438;-73
2020/12/06 02:02:03;;;;;;;9.50;6.95;;;4.20;79.20;;;;;;5136163;27;20107;-73
2020/12/06 02:04:30;;;;;;;8.93;6.95;;;4.10;79.20;;;;;;5154605;27;20030;-73
2020/12/06 02:06:57;;;;;;;8.88;6.07;;;4.10;79.30;;;;;;5136123;27;20074;-73
2020/12/06 02:09:23;;;;;;;9.38;6.50;;;4.20;79.30;;;;;;5135894;27;20072;-73
2020/12/06 02:11:50;;;;;;;10.40;6.95;;;4.10;79.30;;;;;;5135899;27;20057;-73
2020/12/06 02:14:16;;;;;;;8.90;6.60;;;4.10;79.30;;;;;;5135616;27;20026;-74
2020/12/06 02:16:42;;;;;;;9.88;6.60;;;4.10;79.40;;;;;;5135644;27;20026;-73
2020/12/06 02:19:10;;;;;;;9.40;6.50;;;4.10;79.40;;;;;;5154262;27;20035;-73
2020/12/06 02:21:40;;;;;;;8.38;6.18;;;4.10;79.40;;;;;;5135746;27;20035;-73
2020/12/06 02:24:16;;;;;;;9.10;6.13;;;4.20;79.40;;;;;;5154276;27;20071;-73
2020/12/06 02:26:44;;;;;;;9.13;6.15;;;4.20;79.30;;;;;;5153986;27;20051;-73
2020/12/06 02:29:10;;;;;;;8.95;6.30;;;4.20;79.30;;;;;;5135641;27;20136;-74
2020/12/06 02:31:37;;;;;;;9.07;6.55;;;4.30;80.00;;;;;;5136505;27;20023;-73
2020/12/06 02:34:03;;;;;;;10.25;6.75;;;4.30;79.30;;;;;;5135659;27;20484;-73
2020/12/06 02:36:29;;;;;;;9.55;6.68;;;4.30;79.20;;;;;;5135613;27;20022;-73
2020/12/06 02:38:55;;;;;;;9.70;6.78;;;4.30;79.20;;;;;;5135658;27;20037;-73
2020/12/06 02:41:21;;;;;;;8.45;6.40;;;4.30;79.20;;;;;;5154573;27;20080;-73
2020/12/06 02:43:46;;;;;;;10.95;7.07;;;4.30;79.20;;;;;;5135820;27;20030;-73
2020/12/06 02:46:12;;;;;;;10.85;7.20;;;4.40;79.20;;;;;;5135622;27;20034;-74
2020/12/06 02:48:38;;;;;;;10.00;6.90;;;4.40;79.30;;;;;;5135602;27;20026;-73
2020/12/06 02:51:05;;;;;;;10.40;6.82;;;4.40;79.20;;;;;;5154146;27;20458;-73
2020/12/06 02:53:32;;;;;;;10.02;6.90;;;4.40;79.20;;;;;;5132493;27;20414;-73
2020/12/06 02:55:58;;;;;;;7.97;6.40;;;4.40;79.20;;;;;;5135367;27;20039;-73
2020/12/06 02:58:23;;;;;;;10.38;6.70;;;4.50;79.20;;;;;;5137126;27;20046;-73
2020/12/06 03:00:49;;;;;;;9.40;6.13;;;4.50;79.20;;;;;;5139368;27;20022;-73
2020/12/06 03:03:15;;;;;;;10.98;6.43;;;4.50;79.20;;;;;;5139164;27;20115;-72
2020/12/06 03:05:40;;;;;;;9.63;6.82;;;4.50;79.10;;;;;;5139098;27;20033;-72
2020/12/06 03:08:06;;;;;;;9.43;6.90;;;4.50;79.10;;;;;;5139440;27;20056;-72
2020/12/06 03:10:32;;;;;;;8.43;6.25;;;4.50;79.10;;;;;;5139073;27;20361;-73
2020/12/06 03:12:57;;;;;;;11.35;7.70;;;4.50;79.10;;;;;;5139538;27;20034;-72
2020/12/06 03:15:23;;;;;;;9.50;6.75;;;4.50;79.10;;;;;;5139037;27;20097;-73
2020/12/06 03:17:49;;;;;;;10.65;6.60;;;4.50;79.20;;;;;;5139001;27;20076;-73
2020/12/06 03:20:14;;;;;;;9.63;6.88;;;4.50;79.10;;;;;;5139414;27;20019;-73
2020/12/06 03:22:40;;;;;;;9.43;6.85;;;4.50;79.20;;;;;;5157767;27;20109;-72
2020/12/06 03:25:06;;;;;;;9.50;6.50;;;4.50;79.10;;;;;;5138508;27;20065;-72
2020/12/06 03:27:31;;;;;;;9.13;6.25;;;4.50;79.10;;;;;;5138878;27;20026;-73
2020/12/06 03:29:57;;;;;;;8.68;6.47;;;4.50;79.10;;;;;;5138947;27;20027;-72
2020/12/06 03:32:23;;;;;;;9.00;6.50;;;4.50;79.00;;;;;;5138705;27;20018;-73
2020/12/06 03:34:49;;;;;;;8.35;6.22;;;4.60;79.00;;;;;;5157392;27;20377;-73
2020/12/06 03:37:16;;;;;;;7.90;5.85;;;4.60;79.00;;;;;;5157282;27;20027;-73
2020/12/06 03:39:41;;;;;;;7.88;5.78;;;4.60;79.00;;;;;;5138701;27;20018;-73
2020/12/06 03:42:07;;;;;;;8.52;6.43;;;4.60;79.00;;;;;;5138835;27;20114;-73
2020/12/06 03:44:33;;;;;;;8.30;6.22;;;4.60;78.90;;;;;;5138559;27;20025;-73
2020/12/06 03:46:59;;;;;;;9.68;6.70;;;4.60;78.80;;;;;;5157203;27;20023;-73
2020/12/06 03:49:25;;;;;;;9.48;6.72;;;4.60;78.90;;;;;;5138386;27;20027;-72
2020/12/06 03:51:51;;;;;;;8.40;6.03;;;4.60;78.80;;;;;;5138416;27;20034;-73
2020/12/06 03:54:16;;;;;;;8.02;6.10;;;4.70;78.90;;;;;;5157021;27;20362;-72
2020/12/06 03:56:42;;;;;;;9.05;6.70;;;4.60;78.90;;;;;;5138663;27;20038;-73
2020/12/06 03:59:08;;;;;;;9.38;6.32;;;4.60;78.90;;;;;;5138276;27;20435;-73
2020/12/06 04:01:33;;;;;;;8.95;6.55;;;4.70;78.90;;;;;;5138099;27;20091;-73
2020/12/06 04:03:59;;;;;;;9.77;6.78;;;4.70;78.90;;;;;;5156976;27;20027;-73
2020/12/06 04:06:25;;;;;;;9.13;6.53;;;4.70;78.80;;;;;;5138486;27;20035;-73
2020/12/06 04:08:50;;;;;;;8.57;6.28;;;4.80;78.80;;;;;;5137765;27;20023;-73
2020/12/06 04:11:16;;;;;;;9.30;6.55;;;4.70;78.80;;;;;;5137952;27;20087;-73
2020/12/06 04:13:41;;;;;;;8.13;6.22;;;4.70;78.80;;;;;;5138086;27;20038;-72
2020/12/06 04:16:07;;;;;;;8.35;6.28;;;4.70;78.80;;;;;;5138035;27;20497;-73
2020/12/06 04:18:33;;;;;;;8.45;6.65;;;4.80;78.80;;;;;;5138001;27;20026;-73
2020/12/06 04:20:58;;;;;;;8.75;6.68;;;4.80;78.80;;;;;;5138285;27;20031;-73
2020/12/06 04:23:24;;;;;;;8.65;5.95;;;4.80;78.70;;;;;;5137960;27;20047;-73
2020/12/06 04:25:50;;;;;;;8.35;6.10;;;4.80;78.70;;;;;;5156166;27;20121;-73
2020/12/06 04:28:15;;;;;;;9.23;6.82;;;4.80;78.70;;;;;;5137678;27;20033;-73
2020/12/06 04:30:41;;;;;;;8.27;6.38;;;4.80;78.60;;;;;;5137754;27;20014;-73
2020/12/06 04:33:07;;;;;;;8.45;6.00;;;4.80;78.60;;;;;;5137667;27;20382;-73
2020/12/06 04:35:32;;;;;;;9.38;6.20;;;4.80;78.70;;;;;;5137513;27;20071;-72
2020/12/06 04:37:58;;;;;;;10.32;6.70;;;4.80;78.70;;;;;;5137837;27;20038;-73
2020/12/06 04:40:24;;;;;;;9.05;6.38;;;4.80;78.70;;;;;;5137457;27;20034;-73
2020/12/06 04:42:49;;;;;;;9.23;6.25;;;4.80;78.70;;;;;;5137306;27;20030;-72
2020/12/06 04:45:15;;;;;;;9.60;6.70;;;4.80;78.70;;;;;;5156098;27;20140;-73
2020/12/06 04:47:55;;;;;;;9.95;6.57;;;4.80;79.30;;;;;;5137322;27;20027;-73
2020/12/06 04:50:34;;;;;;;8.50;6.25;;;4.80;78.60;;;;;;5137124;27;20031;-73
2020/12/06 04:53:01;;;;;;;12.15;6.68;;;4.80;78.60;;;;;;5137200;27;20057;-73
2020/12/06 04:55:37;;;;;;;8.80;6.18;;;4.80;78.50;;;;;;5155692;27;20342;-72
2020/12/06 04:58:04;;;;;;;7.68;5.88;;;4.80;78.50;;;;;;5137393;27;20452;-73
2020/12/06 05:00:34;;;;;;;9.80;6.88;;;4.80;78.50;;;;;;5137041;27;20033;-73
2020/12/06 05:03:05;;;;;;;10.02;7.07;;;4.80;78.60;;;;;;5137098;27;20027;-73
2020/12/06 05:05:38;;;;;;;8.35;6.50;;;4.70;78.50;;;;;;5155367;27;20150;-73
2020/12/06 05:08:06;;;;;;;10.50;6.93;;;4.70;78.50;;;;;;5137068;27;20022;-73
2020/12/06 05:10:46;;;;;;;9.52;6.70;;;4.60;78.50;;;;;;5136797;27;20095;-73
2020/12/06 05:13:13;;;;;;;9.10;6.63;;;4.60;78.60;;;;;;5155317;27;20019;-73
2020/12/06 05:15:39;;;;;;;10.40;7.47;;;4.50;78.60;;;;;;5155222;27;20034;-73
2020/12/06 05:18:05;;;;;;;13.27;7.47;;;4.50;78.60;;;;;;5155495;27;20378;-73
2020/12/06 05:20:31;;;;;;;10.90;7.88;;;4.50;78.70;;;;;;5135795;27;20022;-72
2020/12/06 05:22:57;;;;;;;8.88;6.78;;;4.50;78.70;;;;;;5137127;27;20050;-73
2020/12/06 05:25:23;;;;;;;8.55;6.30;;;4.60;78.70;;;;;;5136405;27;20074;-73
2020/12/06 05:27:49;;;;;;;12.15;7.80;;;4.60;78.60;;;;;;5136892;27;20022;-73
2020/12/06 05:30:16;;;;;;;10.00;7.15;;;4.60;78.60;;;;;;5136365;27;20036;-73
2020/12/06 05:32:42;;;;;;;10.63;6.90;;;4.60;78.50;;;;;;5136319;27;20015;-73
2020/12/06 05:35:11;;;;;;;9.27;7.07;;;4.60;78.60;;;;;;5136326;27;20026;-73
2020/12/06 05:37:37;;;;;;;10.50;7.80;;;4.60;78.60;;;;;;5136361;27;20030;-72
2020/12/06 05:40:11;;;;;;;12.20;8.38;;;4.60;78.60;;;;;;5154975;27;20518;-73
2020/12/06 05:42:39;;;;;;;10.40;7.72;;;4.50;78.50;;;;;;5136752;27;20034;-73
2020/12/06 05:45:05;;;;;;;11.32;8.27;;;4.50;78.50;;;;;;5136229;27;20027;-73
2020/12/06 05:47:31;;;;;;;12.27;7.90;;;4.50;78.50;;;;;;5136046;27;20083;-73
2020/12/06 05:49:58;;;;;;;10.70;7.85;;;4.40;78.60;;;;;;5136345;27;20492;-72
2020/12/06 05:52:27;;;;;;;12.57;8.93;;;4.40;78.60;;;;;;5154985;27;20023;-72
2020/12/06 05:54:58;;;;;;;12.82;8.30;;;4.30;78.70;;;;;;5154848;27;20414;-73
2020/12/06 05:57:27;;;;;;;13.77;8.55;;;4.30;78.70;;;;;;5136095;27;20482;-73
2020/12/06 05:59:58;;;;;;;11.77;8.18;;;4.20;78.70;;;;;;5136273;27;20026;-73
2020/12/06 06:02:25;;;;;;;12.80;8.48;;;4.20;78.80;;;;;;5136013;27;20540;-73
2020/12/06 06:04:52;;;;;;;15.77;9.93;;;4.20;78.80;;;;;;5154462;27;20026;-72
2020/12/06 06:07:22;;;;;;;12.88;8.52;;;4.20;78.90;;;;;;5135757;27;20033;-72
2020/12/06 06:10:05;;;;;;;14.40;9.60;;;4.10;78.90;;;;;;5154520;27;20058;-73
2020/12/06 06:12:42;;;;;;;18.67;10.23;;;4.10;78.90;;;;;;5135921;27;20385;-72
2020/12/06 06:15:08;;;;;;;14.23;9.43;;;4.10;79.00;;;;;;5136179;27;20031;-73
2020/12/06 06:17:33;;;;;;;13.35;8.93;;;4.10;79.10;;;;;;5135765;27;20390;-72
2020/12/06 06:19:59;;;;;;;15.15;9.43;;;4.10;79.10;;;;;;5135796;27;20111;-72
2020/12/06 06:22:32;;;;;;;14.88;9.73;;;4.00;79.10;;;;;;5135785;27;20034;-73
2020/12/06 06:25:00;;;;;;;12.32;8.85;;;4.10;79.20;;;;;;5135786;27;20070;-73
2020/12/06 06:27:30;;;;;;;14.23;8.98;;;4.10;79.20;;;;;;5135634;27;20042;-72
2020/12/06 06:29:55;;;;;;;11.88;8.27;;;4.10;79.20;;;;;;5135875;27;20018;-73
2020/12/06 06:32:22;;;;;;;14.13;9.73;;;4.10;79.30;;;;;;5137665;27;20094;-73
2020/12/06 06:34:49;;;;;;;14.57;9.60;;;4.10;79.20;;;;;;5140053;27;20026;-73
2020/12/06 06:37:16;;;;;;;15.68;8.75;;;4.20;79.20;;;;;;5140106;27;20030;-73
2020/12/06 06:39:43;;;;;;;13.82;9.32;;;4.20;79.20;;;;;;5140123;27;20347;-72
2020/12/06 06:42:11;;;;;;;13.80;9.52;;;4.20;79.20;;;;;;5139848;27;20378;-73
2020/12/06 06:44:42;;;;;;;14.77;10.23;;;4.20;79.30;;;;;;5139661;27;20061;-72
2020/12/06 06:47:13;;;;;;;14.40;9.77;;;4.30;79.30;;;;;;5139588;27;20365;-73
2020/12/06 06:49:52;;;;;;;16.45;10.23;;;4.20;79.20;;;;;;5139497;27;20034;-73
2020/12/06 06:52:19;;;;;;;17.83;11.20;;;4.20;79.30;;;;;;5139230;27;20537;-73
2020/12/06 06:54:53;;;;;;;16.35;10.63;;;4.20;79.40;;;;;;5139237;27;20492;-73
2020/12/06 06:57:20;;;;;;;16.10;10.02;;;4.20;79.60;;;;;;5157744;27;20105;-73
2020/12/06 06:59:49;;;;;;;17.25;11.10;;;4.20;79.60;;;;;;5139455;27;20067;-72
2020/12/06 07:02:41;;;;;;;16.05;11.07;;;4.20;79.60;;;;;;5139346;27;20427;-72
2020/12/06 07:05:13;;;;;;;16.33;10.60;;;4.20;79.70;;;;;;5148817;27;20039;-73
2020/12/06 07:07:43;;;;;;;16.75;10.77;;;4.10;79.70;;;;;;5139310;27;20023;-73
2020/12/06 07:10:17;;;;;;;17.33;10.98;;;4.10;79.70;;;;;;5157457;27;20023;-73
2020/12/06 07:12:51;;;;;;;15.27;9.98;;;4.00;79.80;;;;;;5157800;27;20029;-73
2020/12/06 07:15:21;;;;;;;16.48;10.20;;;4.10;79.90;;;;;;5138638;27;20482;-72
2020/12/06 07:17:48;;;;;;;17.25;11.07;;;4.10;80.00;;;;;;5138703;27;20026;-73
2020/12/06 07:20:15;;;;;;;16.50;10.43;;;4.10;80.00;;;;;;5138685;27;20030;-73
2020/12/06 07:22:42;;;;;;;16.17;11.45;;;4.00;80.00;;;;;;5138651;27;20025;-72
2020/12/06 07:25:10;;;;;;;18.38;11.85;;;3.90;80.10;;;;;;5157268;27;20083;-72
2020/12/06 07:27:37;;;;;;;14.95;10.55;;;3.90;80.20;;;;;;5157115;27;20046;-72
2020/12/06 07:30:08;;;;;;;15.27;10.27;;;3.90;80.30;;;;;;5138582;27;20394;-72
2020/12/06 07:32:34;;;;;;;15.90;10.20;;;3.90;80.30;;;;;;5138489;27;20023;-73
2020/12/06 07:35:00;;;;;;;14.68;9.63;;;3.90;80.40;;;;;;5157269;27;20077;-73
2020/12/06 07:37:26;;;;;;;17.83;10.65;;;3.80;80.30;;;;;;5138117;27;20427;-73
2020/12/06 07:39:52;;;;;;;17.55;11.65;;;3.90;80.40;;;;;;5156915;27;20046;-72
2020/12/06 07:42:28;;;;;;;17.23;11.02;;;3.80;80.40;;;;;;5138236;27;20026;-72
2020/12/06 07:44:56;;;;;;;18.38;10.73;;;3.80;80.50;;;;;;5137484;27;20034;-73
2020/12/06 07:47:22;;;;;;;15.73;10.25;;;3.80;80.50;;;;;;5138051;27;20057;-72
2020/12/06 07:49:51;;;;;;;17.63;11.02;;;3.80;80.60;;;;;;5156826;27;20031;-72
2020/12/06 07:52:19;;;;;;;19.42;12.48;;;3.80;80.70;;;;;;5137896;27;20045;-73
2020/12/06 07:54:56;;;;;;;16.08;10.75;;;3.80;80.70;;;;;;5137933;27;20026;-72
2020/12/06 07:57:28;;;;;;;17.90;11.40;;;3.80;80.80;;;;;;5156456;27;20033;-72
2020/12/06 07:59:55;;;;;;;18.13;11.77;;;3.90;80.90;;;;;;5138247;27;20027;-73
2020/12/06 08:02:23;;;;;;;15.30;10.45;;;3.90;80.80;;;;;;5138168;27;20031;-72
2020/12/06 08:04:51;;;;;;;16.15;10.57;;;3.90;80.90;;;;;;5137839;27;20050;-72
2020/12/06 08:07:21;;;;;;;17.30;10.40;;;4.00;80.90;;;;;;5156437;27;20034;-72
2020/12/06 08:09:48;;;;;;;15.73;10.88;;;4.00;80.90;;;;;;5137626;27;20033;-72
2020/12/06 08:12:16;;;;;;;19.00;11.32;;;4.10;80.90;;;;;;5156792;27;20094;-72
2020/12/06 08:14:42;;;;;;;14.25;9.85;;;4.10;80.80;;;;;;5137471;27;20493;-72
2020/12/06 08:17:07;;;;;;;14.55;10.00;;;4.20;80.80;;;;;;5156451;27;20030;-73
2020/12/06 08:19:33;;;;;;;15.05;10.32;;;4.20;80.80;;;;;;5137444;27;20053;-73
2020/12/06 08:22:00;;;;;;;15.70;10.85;;;4.20;80.70;;;;;;5156652;27;20176;-72
2020/12/06 08:24:28;;;;;;;14.57;10.15;;;4.30;80.70;;;;;;5137598;27;20026;-72
2020/12/06 08:26:54;;;;;;;15.48;10.88;;;4.40;80.70;;;;;;5137500;27;20482;-72
2020/12/06 08:29:20;;;;;;;14.55;9.70;;;4.40;80.50;;;;;;5137448;27;20106;-73
2020/12/06 08:31:48;;;;;;;15.80;10.55;;;4.50;80.50;;;;;;5137499;27;20481;-72
2020/12/06 08:34:15;;;;;;;13.95;9.60;;;4.50;80.40;;;;;;5137547;27;20050;-72
2020/12/06 08:36:42;;;;;;;17.42;10.85;;;4.60;80.40;;;;;;5137726;27;20030;-74
2020/12/06 08:39:32;;;;;;;15.02;10.27;;;4.60;80.30;;;;;;5156206;27;20114;-75
2020/12/06 08:42:21;;;;;;;16.00;9.75;;;4.70;80.20;;;;;;5137568;27;20026;-74
2020/12/06 08:44:54;;;;;;;16.20;10.68;;;4.60;80.00;;;;;;5156324;27;20026;-74
2020/12/06 08:47:21;;;;;;;16.23;10.45;;;4.60;80.10;;;;;;5137591;27;20019;-74
2020/12/06 08:49:47;;;;;;;15.90;10.75;;;4.50;80.30;;;;;;5137359;27;20025;-74
2020/12/06 08:52:21;;;;;;;17.75;11.57;;;4.60;80.40;;;;;;5136892;27;20022;-74
2020/12/06 08:54:50;;;;;;;17.83;11.90;;;4.60;80.50;;;;;;5155543;27;20071;-72
2020/12/06 08:57:19;;;;;;;17.15;10.55;;;4.60;80.40;;;;;;5136707;27;20022;-72
2020/12/06 08:59:45;;;;;;;17.85;11.55;;;4.60;80.30;;;;;;5137234;27;20454;-73
2020/12/06 09:02:23;;;;;;;15.98;10.68;;;4.60;80.40;;;;;;5137405;27;20025;-73
2020/12/06 09:04:50;;;;;;;17.42;11.18;;;4.60;80.40;;;;;;5137144;27;20038;-72
2020/12/06 09:07:16;;;;;;;14.95;9.95;;;4.50;80.40;;;;;;5155680;27;20065;-72
2020/12/06 09:09:42;;;;;;;17.38;11.88;;;4.40;80.50;;;;;;5137048;27;20030;-72
2020/12/06 09:12:08;;;;;;;16.10;11.05;;;4.40;80.50;;;;;;5155618;27;20050;-72
2020/12/06 09:14:34;;;;;;;18.17;11.30;;;4.40;80.60;;;;;;5136853;27;20014;-71
2020/12/06 09:17:00;;;;;;;17.23;11.50;;;4.50;80.70;;;;;;5136965;27;20412;-73
2020/12/06 09:19:25;;;;;;;17.10;11.23;;;4.60;80.60;;;;;;5136772;27;20042;-74
2020/12/06 09:21:51;;;;;;;20.48;12.82;;;4.60;80.50;;;;;;5136835;27;20442;-74
2020/12/06 09:24:17;;;;;;;17.35;11.75;;;4.70;80.50;;;;;;5136647;27;20481;-74
2020/12/06 09:26:42;;;;;;;18.05;12.38;;;4.70;80.30;;;;;;5154977;27;20039;-73
2020/12/06 09:29:08;;;;;;;19.60;13.05;;;4.60;80.30;;;;;;5136462;27;20027;-75
2020/12/06 09:31:36;;;;;;;17.50;12.30;;;4.60;80.40;;;;;;5136850;27;20027;-75
2020/12/06 09:34:02;;;;;;;16.48;11.48;;;4.70;80.50;;;;;;5136508;27;20040;-75
2020/12/06 09:36:29;;;;;;;19.45;12.77;;;4.60;80.40;;;;;;5136825;27;20022;-74
2020/12/06 09:42:16;;;;;;;18.77;12.25;;;4.70;80.30;;;;;;5155734;27;20102;-73
2020/12/06 09:44:42;;;;;;;19.10;12.52;;;4.80;80.20;;;;;;5136191;27;20026;-73
2020/12/06 09:47:08;;;;;;;18.00;11.45;;;4.80;80.20;;;;;;5136118;27;20034;-74
2020/12/06 09:49:35;;;;;;;19.42;12.82;;;4.80;80.10;;;;;;5136696;27;20359;-74
2020/12/06 09:52:01;;;;;;;17.50;10.70;;;5.00;80.20;;;;;;5136413;27;20593;-74
2020/12/06 09:54:27;;;;;;;19.33;11.63;;;5.00;80.10;;;;;;5136171;27;20094;-74
2020/12/06 09:56:52;;;;;;;17.60;11.52;;;5.10;80.00;;;;;;5136233;27;20094;-73
2020/12/06 09:59:18;;;;;;;16.15;10.82;;;5.20;80.00;;;;;;5154708;27;20069;-73
2020/12/06 10:01:44;;;;;;;18.38;11.27;;;5.20;79.80;;;;;;5154600;27;20018;-73
2020/12/06 10:04:09;;;;;;;15.63;10.65;;;5.30;79.80;;;;;;5155013;27;20079;-73
2020/12/06 10:06:35;;;;;;;15.65;10.95;;;5.40;79.70;;;;;;5154344;27;20418;-75
2020/12/06 10:09:01;;;;;;;16.88;11.27;;;5.40;79.50;;;;;;5136006;27;20059;-73
2020/12/06 10:11:26;;;;;;;14.82;11.05;;;5.40;79.50;;;;;;5135796;27;20031;-74
2020/12/06 10:13:52;;;;;;;15.75;10.85;;;5.50;79.50;;;;;;5154437;27;20023;-74
2020/12/06 10:16:18;;;;;;;17.52;11.25;;;5.50;79.40;;;;;;5154378;27;20038;-73
2020/12/06 10:18:44;;;;;;;16.23;10.50;;;5.60;79.40;;;;;;5154472;27;20079;-74
2020/12/06 10:21:12;;;;;;;15.98;10.43;;;5.60;79.40;;;;;;5154276;27;20026;-74
2020/12/06 10:23:38;;;;;;;15.98;9.93;;;5.70;79.30;;;;;;5154841;27;20072;-74
2020/12/06 10:26:04;;;;;;;15.65;10.05;;;5.70;79.10;;;;;;5135970;27;20462;-74
2020/12/06 10:28:30;;;;;;;17.08;11.18;;;5.70;79.10;;;;;;5136088;27;20056;-73
2020/12/06 10:30:55;;;;;;;16.23;11.27;;;5.70;79.10;;;;;;5135872;27;20021;-73
2020/12/06 10:33:21;;;;;;;17.42;11.55;;;5.70;79.00;;;;;;5155086;27;20027;-74
2020/12/06 10:35:47;;;;;;;16.20;11.52;;;5.70;79.10;;;;;;5136423;27;20029;-74
2020/12/06 10:38:12;;;;;;;15.93;11.00;;;5.80;79.20;;;;;;5154649;27;20026;-74
2020/12/06 10:40:38;;;;;;;16.58;11.10;;;5.80;79.20;;;;;;5135976;27;20454;-74
2020/12/06 10:43:04;;;;;;;15.98;10.93;;;5.90;79.90;;;;;;5135638;27;20154;-74
2020/12/06 10:45:30;;;;;;;16.42;10.85;;;5.90;79.20;;;;;;5154084;27;20043;-73
2020/12/06 10:47:56;;;;;;;14.85;10.70;;;6.00;79.10;;;;;;5154250;27;20076;-73
2020/12/06 10:50:22;;;;;;;16.40;11.00;;;6.00;79.10;;;;;;5135531;27;20445;-74
2020/12/06 10:52:47;;;;;;;19.30;12.50;;;6.00;78.90;;;;;;5154407;27;20091;-74
2020/12/06 10:55:13;;;;;;;16.25;11.02;;;6.00;78.90;;;;;;5135270;27;20057;-74
2020/12/06 10:57:39;;;;;;;16.40;11.48;;;6.00;79.00;;;;;;5135464;27;20102;-73
2020/12/06 11:00:05;;;;;;;17.85;11.82;;;6.10;79.00;;;;;;5154325;27;20062;-73
2020/12/06 11:02:31;;;;;;;17.70;12.10;;;6.20;79.00;;;;;;5154205;27;20146;-73
2020/12/06 11:04:57;;;;;;;15.48;10.77;;;6.20;79.00;;;;;;5135648;27;20026;-73
2020/12/06 11:07:23;;;;;;;16.02;10.85;;;6.30;79.00;;;;;;5154325;27;20026;-73
2020/12/06 11:09:49;;;;;;;16.92;11.77;;;6.30;78.90;;;;;;5135612;27;20027;-73
2020/12/06 11:12:14;;;;;;;18.17;12.57;;;6.30;78.80;;;;;;5154324;27;20029;-74
2020/12/06 11:14:40;;;;;;;19.00;12.98;;;6.40;78.80;;;;;;5153800;27;20450;-74
2020/12/06 11:17:06;;;;;;;17.45;12.45;;;6.30;78.70;;;;;;5135358;27;20187;-73
2020/12/06 11:19:32;;;;;;;16.50;11.00;;;6.30;78.70;;;;;;5137718;27;20517;-73
2020/12/06 11:21:57;;;;;;;18.15;11.60;;;6.30;78.80;;;;;;5157814;27;20454;-73
2020/12/06 11:24:23;;;;;;;16.00;10.85;;;6.30;78.80;;;;;;5139691;27;20022;-74
2020/12/06 11:26:49;;;;;;;17.10;12.25;;;6.20;78.90;;;;;;5158054;27;20101;-73
2020/12/06 11:29:15;;;;;;;17.55;11.68;;;6.20;78.90;;;;;;5139090;27;20462;-73
2020/12/06 11:31:41;;;;;;;18.13;12.35;;;6.20;78.90;;;;;;5138808;27;20473;-74
2020/12/06 11:34:07;;;;;;;17.80;12.38;;;6.10;78.90;;;;;;5138842;27;20022;-74
2020/12/06 11:36:32;;;;;;;17.48;11.93;;;6.10;78.90;;;;;;5139017;27;20026;-73
2020/12/06 11:38:58;;;;;;;15.70;11.20;;;6.10;79.10;;;;;;5157860;27;20083;-73
2020/12/06 11:41:25;;;;;;;17.27;11.52;;;6.20;79.10;;;;;;5138777;27;20113;-73
2020/12/06 11:43:50;;;;;;;17.50;10.93;;;6.20;79.70;;;;;;5138757;27;20370;-74
2020/12/06 11:46:16;;;;;;;15.98;10.75;;;6.30;79.10;;;;;;5157294;27;20051;-73
2020/12/06 11:48:42;;;;;;;14.90;10.90;;;6.30;79.00;;;;;;5138473;27;20018;-73
2020/12/06 11:51:07;;;;;;;15.60;10.93;;;6.30;78.80;;;;;;5157206;27;20083;-73
2020/12/06 11:53:35;;;;;;;16.83;10.50;;;6.40;78.80;;;;;;5138495;27;20431;-73
2020/12/06 11:56:01;;;;;;;15.85;10.48;;;6.50;78.80;;;;;;5138441;27;20034;-73
2020/12/06 11:58:27;;;;;;;16.70;10.65;;;6.60;78.80;;;;;;5157185;27;20037;-72
2020/12/06 12:00:52;;;;;;;16.33;10.35;;;6.60;78.60;;;;;;5157013;27;20140;-73
2020/12/06 12:03:18;;;;;;;15.00;10.38;;;6.70;78.60;;;;;;5138228;27;20031;-73
2020/12/06 12:05:45;;;;;;;15.55;10.38;;;6.70;78.30;;;;;;5137987;27;20125;-73
2020/12/06 12:08:10;;;;;;;16.88;11.65;;;6.70;78.30;;;;;;5138574;27;20106;-74
2020/12/06 12:10:36;;;;;;;15.55;10.55;;;6.70;78.10;;;;;;5138103;27;20053;-73
2020/12/06 12:13:01;;;;;;;15.27;10.43;;;6.70;78.20;;;;;;5156560;27;20114;-73
2020/12/06 12:15:27;;;;;;;14.10;10.05;;;6.70;78.20;;;;;;5156718;27;20027;-73
2020/12/06 12:17:53;;;;;;;16.00;11.10;;;6.70;78.30;;;;;;5137885;27;20022;-73
2020/12/06 12:20:18;;;;;;;14.20;9.90;;;6.70;78.30;;;;;;5156952;27;20491;-73
2020/12/06 12:22:44;;;;;;;13.75;9.95;;;6.60;78.20;;;;;;5138034;27;20071;-73
2020/12/06 12:25:09;;;;;;;16.00;9.93;;;6.60;78.30;;;;;;5137788;27;20046;-73
2020/12/06 12:27:35;;;;;;;16.92;11.07;;;6.60;78.40;;;;;;5137730;27;20039;-73
2020/12/06 12:30:01;;;;;;;14.73;10.27;;;6.70;78.60;;;;;;5137595;27;20023;-72
2020/12/06 12:32:26;;;;;;;12.57;9.13;;;6.70;78.60;;;;;;5137834;27;20010;-73
2020/12/06 12:34:52;;;;;;;13.43;8.90;;;6.70;78.70;;;;;;5137894;27;20018;-73
2020/12/06 12:37:18;;;;;;;14.38;9.98;;;6.70;78.70;;;;;;5137577;27;20144;-73
2020/12/06 12:39:44;;;;;;;13.77;9.18;;;6.80;78.80;;;;;;5138174;27;20076;-73
2020/12/06 12:42:10;;;;;;;13.50;9.20;;;6.80;78.80;;;;;;5156662;27;20398;-71
2020/12/06 12:44:38;;;;;;;13.82;9.55;;;6.80;78.80;;;;;;5137634;27;20018;-71
2020/12/06 12:47:04;;;;;;;14.13;10.00;;;6.80;78.90;;;;;;5137787;27;20030;-73